createdAt,value
2023-03-25T00:01:16.427Z,19.81
2023-03-25T00:06:18.596Z,19.81
2023-03-25T00:11:20.894Z,19.78
2023-03-25T00:16:22.924Z,19.80
2023-03-25T00:21:25.029Z,19.81
2023-03-25T00:26:30.389Z,19.80
2023-03-25T00:31:32.590Z,19.80
2023-03-25T00:36:38.000Z,19.80
2023-03-25T00:41:42.234Z,19.80
2023-03-25T00:46:44.157Z,19.79
2023-03-25T00:51:52.886Z,19.80
2023-03-25T00:56:56.545Z,19.82
2023-03-25T01:01:59.092Z,19.80
2023-03-25T01:07:01.916Z,19.80
2023-03-25T01:12:04.115Z,19.80
2023-03-25T01:17:06.275Z,19.76
2023-03-25T01:22:08.180Z,19.79
2023-03-25T01:27:10.220Z,19.80
2023-03-25T01:32:12.305Z,19.79
2023-03-25T01:37:14.392Z,19.77
2023-03-25T01:42:16.614Z,19.79
2023-03-25T01:47:18.817Z,19.77
2023-03-25T01:52:26.634Z,19.81
2023-03-25T01:57:31.437Z,19.76
2023-03-25T02:02:36.995Z,19.78
2023-03-25T02:07:43.207Z,19.77
2023-03-25T02:12:47.425Z,19.76
2023-03-25T02:18:01.879Z,19.76
2023-03-25T02:23:22.534Z,19.75
2023-03-25T02:28:36.162Z,19.75
2023-03-25T02:34:01.877Z,19.77
2023-03-25T02:39:09.160Z,19.74
2023-03-25T02:45:07.633Z,19.73
2023-03-25T02:50:21.104Z,19.76
2023-03-25T02:55:25.857Z,19.76
2023-03-25T03:00:30.169Z,19.76
2023-03-25T03:05:39.881Z,19.74
2023-03-25T03:11:04.132Z,19.69
2023-03-25T03:16:14.495Z,19.75
2023-03-25T03:21:23.746Z,19.75
2023-03-25T03:26:45.506Z,19.73
2023-03-25T03:32:07.473Z,19.75
2023-03-25T03:37:18.888Z,19.75
2023-03-25T03:42:27.560Z,19.73
2023-03-25T03:47:34.562Z,19.74
2023-03-25T03:52:48.436Z,19.76
2023-03-25T03:58:02.281Z,19.73
2023-03-25T04:03:18.549Z,19.75
2023-03-25T04:08:34.665Z,19.70
2023-03-25T04:13:40.691Z,19.73
2023-03-25T04:18:43.845Z,19.73
2023-03-25T04:23:46.591Z,19.76
2023-03-25T04:28:48.572Z,19.73
2023-03-25T04:33:51.026Z,19.73
2023-03-25T04:38:53.523Z,19.75
2023-03-25T04:43:55.641Z,19.73
2023-03-25T04:48:58.295Z,19.72
2023-03-25T04:54:01.341Z,19.74
2023-03-25T04:59:04.659Z,19.76
2023-03-25T05:04:07.088Z,19.74
2023-03-25T05:09:14.803Z,19.74
2023-03-25T05:14:19.460Z,19.69
2023-03-25T05:19:22.090Z,19.72
2023-03-25T05:24:23.956Z,19.69
2023-03-25T05:29:26.145Z,19.74
2023-03-25T05:34:30.399Z,19.74
2023-03-25T05:39:32.499Z,19.75
2023-03-25T05:44:34.404Z,19.70
2023-03-25T05:49:36.525Z,19.70
2023-03-25T05:54:41.942Z,19.68
2023-03-25T05:59:43.845Z,19.70
2023-03-25T06:04:50.766Z,19.72
2023-03-25T06:09:54.450Z,19.68
2023-03-25T06:14:56.567Z,19.70
2023-03-25T06:20:00.950Z,19.68
2023-03-25T06:25:04.043Z,19.72
2023-03-25T06:30:08.359Z,19.67
2023-03-25T06:35:12.026Z,19.70
2023-03-25T06:40:14.869Z,19.68
2023-03-25T06:45:16.783Z,19.74
2023-03-25T06:50:18.716Z,19.69
2023-03-25T06:55:20.601Z,19.62
2023-03-25T07:00:24.476Z,19.67
2023-03-25T07:05:26.758Z,19.69
2023-03-25T07:10:28.734Z,19.67
2023-03-25T07:15:31.014Z,19.68
2023-03-25T07:20:33.086Z,19.66
2023-03-25T07:25:35.061Z,19.64
2023-03-25T07:30:37.058Z,19.70
2023-03-25T07:35:39.223Z,19.65
2023-03-25T07:40:41.420Z,19.72
2023-03-25T07:45:43.979Z,19.68
2023-03-25T07:50:58.283Z,19.66
2023-03-25T07:56:00.247Z,19.68
2023-03-25T08:01:02.315Z,19.66
2023-03-25T08:06:04.767Z,19.64
2023-03-25T08:11:06.956Z,19.66
2023-03-25T08:16:15.754Z,19.63
2023-03-25T08:21:17.836Z,19.66
2023-03-25T08:26:19.828Z,19.65
2023-03-25T08:31:22.213Z,19.32
2023-03-25T08:36:24.530Z,19.21
2023-03-25T08:41:26.388Z,19.09
2023-03-25T08:46:28.467Z,19.03
2023-03-25T08:51:30.738Z,19.03
2023-03-25T08:56:32.876Z,18.93
2023-03-25T09:01:35.063Z,18.95
2023-03-25T09:06:47.156Z,19.21
2023-03-25T09:11:50.766Z,19.40
2023-03-25T09:16:52.675Z,19.45
2023-03-25T09:21:54.823Z,19.49
2023-03-25T09:26:56.915Z,19.53
2023-03-25T09:32:00.200Z,19.56
2023-03-25T09:37:03.757Z,19.58
2023-03-25T09:42:23.788Z,19.54
2023-03-25T09:47:27.231Z,19.61
2023-03-25T09:52:47.282Z,19.57
2023-03-25T09:57:55.526Z,19.54
2023-03-25T10:03:00.328Z,19.54
2023-03-25T10:08:26.855Z,19.31
2023-03-25T10:13:57.713Z,19.26
2023-03-25T10:19:39.956Z,19.30
2023-03-25T10:24:57.150Z,19.35
2023-03-25T10:30:18.512Z,19.31
2023-03-25T10:35:25.347Z,19.40
2023-03-25T10:41:12.332Z,19.34
2023-03-25T10:46:19.172Z,19.42
2023-03-25T10:51:27.029Z,19.33
2023-03-25T10:56:33.123Z,19.21
2023-03-25T11:01:41.473Z,19.29
2023-03-25T11:06:57.906Z,19.31
2023-03-25T11:12:06.723Z,19.29
2023-03-25T11:17:17.031Z,19.30
2023-03-25T11:22:25.305Z,19.27
2023-03-25T11:27:29.670Z,19.26
2023-03-25T11:32:39.806Z,19.25
2023-03-25T11:37:48.185Z,19.27
2023-03-25T11:42:56.085Z,19.26
2023-03-25T11:48:19.529Z,19.29
2023-03-25T11:53:22.897Z,19.30
2023-03-25T11:58:32.276Z,19.35
2023-03-25T12:03:36.105Z,19.28
2023-03-25T12:08:57.402Z,19.28
2023-03-25T12:14:38.255Z,19.27
2023-03-25T12:20:13.036Z,19.30
2023-03-25T12:25:21.041Z,19.33
2023-03-25T12:30:35.195Z,19.17
2023-03-25T12:36:07.298Z,19.19
2023-03-25T12:41:15.122Z,19.17
2023-03-25T12:46:26.070Z,19.16
2023-03-25T12:51:28.288Z,19.19
2023-03-25T12:56:35.853Z,19.21
2023-03-25T13:02:05.195Z,19.17
2023-03-25T13:07:38.239Z,19.11
2023-03-25T13:12:43.223Z,19.16
2023-03-25T13:18:07.661Z,19.20
2023-03-25T13:23:17.852Z,19.18
2023-03-25T13:28:30.010Z,19.32
2023-03-25T13:33:38.352Z,19.40
2023-03-25T13:39:21.355Z,19.41
2023-03-25T13:44:41.964Z,19.39
2023-03-25T13:49:51.406Z,19.45
2023-03-25T13:55:06.774Z,19.42
2023-03-25T14:00:27.645Z,19.48
2023-03-25T14:06:00.985Z,19.47
2023-03-25T14:11:25.088Z,19.48
2023-03-25T14:16:31.302Z,19.49
2023-03-25T14:21:39.714Z,19.41
2023-03-25T14:26:54.824Z,19.46
2023-03-25T14:32:03.533Z,19.47
2023-03-25T14:37:05.904Z,19.49
2023-03-25T14:42:07.832Z,19.53
2023-03-25T14:47:16.315Z,19.56
2023-03-25T14:52:22.865Z,19.47
2023-03-25T14:57:29.047Z,19.45
2023-03-25T15:02:33.661Z,19.39
2023-03-25T15:07:44.620Z,19.43
2023-03-25T15:12:52.866Z,19.48
2023-03-25T15:17:55.047Z,19.48
2023-03-25T15:23:20.187Z,19.48
2023-03-25T15:28:50.141Z,19.46
2023-03-25T15:34:16.061Z,19.46
2023-03-25T15:39:45.315Z,19.48
2023-03-25T15:45:09.180Z,19.47
2023-03-25T15:50:55.461Z,19.47
2023-03-25T15:56:12.556Z,19.45
2023-03-25T16:01:35.722Z,19.47
2023-03-25T16:06:44.207Z,19.50
2023-03-25T16:11:46.669Z,19.48
2023-03-25T16:16:57.477Z,19.48
2023-03-25T16:22:02.949Z,19.46
2023-03-25T16:27:12.644Z,19.50
2023-03-25T16:32:24.078Z,19.44
2023-03-25T16:37:26.355Z,19.49
2023-03-25T16:42:34.804Z,19.48
2023-03-25T16:47:37.817Z,19.47
2023-03-25T16:52:39.870Z,19.48
2023-03-25T16:57:41.906Z,19.46
2023-03-25T17:02:44.694Z,19.49
2023-03-25T17:07:49.112Z,19.47
2023-03-25T17:13:03.349Z,19.48
2023-03-25T17:18:13.393Z,19.47
2023-03-25T17:23:18.419Z,19.49
2023-03-25T17:28:34.215Z,19.47
2023-03-25T17:33:40.034Z,19.50
2023-03-25T17:38:45.558Z,19.48
2023-03-25T17:43:57.436Z,19.48
2023-03-25T17:49:00.150Z,19.48
2023-03-25T17:54:02.320Z,19.47
2023-03-25T17:59:14.538Z,19.48
2023-03-25T18:04:21.459Z,19.53
2023-03-25T18:09:24.894Z,19.46
2023-03-25T18:14:27.376Z,19.48
2023-03-25T18:19:32.304Z,19.48
2023-03-25T18:24:34.463Z,19.47
2023-03-25T18:29:37.783Z,19.48
2023-03-25T18:34:39.868Z,19.46
2023-03-25T18:39:41.893Z,19.49
2023-03-25T18:44:44.012Z,19.46
2023-03-25T18:49:46.186Z,19.47
2023-03-25T18:54:48.189Z,19.46
2023-03-25T18:59:50.445Z,19.46
2023-03-25T19:05:00.589Z,19.46
2023-03-25T19:10:03.338Z,19.45
2023-03-25T19:15:05.688Z,19.45
2023-03-25T19:20:09.599Z,19.44
2023-03-25T19:25:12.079Z,19.46
2023-03-25T19:30:17.490Z,19.46
2023-03-25T19:35:21.231Z,19.44
2023-03-25T19:40:28.715Z,19.43
2023-03-25T19:45:31.682Z,19.48
2023-03-25T19:50:35.609Z,19.41
2023-03-25T19:55:37.480Z,19.44
2023-03-25T20:00:40.017Z,19.45
2023-03-25T20:05:42.319Z,19.43
2023-03-25T20:10:44.508Z,19.43
2023-03-25T20:15:46.681Z,19.44
2023-03-25T20:20:48.613Z,19.29
2023-03-25T20:25:52.726Z,19.12
2023-03-25T20:30:56.049Z,19.32
2023-03-25T20:35:58.319Z,19.24
2023-03-25T20:41:00.505Z,19.36
2023-03-25T20:46:03.000Z,19.44
2023-03-25T20:51:07.459Z,19.45
2023-03-25T20:56:10.210Z,19.41
2023-03-25T21:01:12.401Z,19.43
2023-03-25T21:06:24.338Z,19.44
2023-03-25T21:11:27.562Z,19.46
2023-03-25T21:16:29.687Z,19.48
2023-03-25T21:21:32.656Z,19.51
2023-03-25T21:26:35.037Z,19.54
2023-03-25T21:31:37.217Z,19.49
2023-03-25T21:36:39.078Z,19.49
2023-03-25T21:41:41.017Z,19.48
2023-03-25T21:46:43.040Z,19.50
2023-03-25T21:51:50.644Z,19.31
2023-03-25T21:56:55.013Z,19.40
2023-03-25T22:01:56.944Z,19.46
2023-03-25T22:06:58.894Z,19.44
2023-03-25T22:12:00.883Z,19.44
2023-03-25T22:17:02.974Z,19.42
2023-03-25T22:22:04.961Z,19.43
2023-03-25T22:27:06.953Z,19.45
2023-03-25T22:32:08.779Z,19.48
2023-03-25T22:37:10.646Z,19.42
2023-03-25T22:42:12.735Z,19.41
2023-03-25T22:47:14.925Z,19.45
2023-03-25T22:52:17.001Z,19.54
2023-03-25T22:57:19.014Z,19.49
2023-03-25T23:02:21.097Z,19.44
2023-03-25T23:07:23.069Z,19.42
2023-03-25T23:12:26.389Z,19.42
2023-03-25T23:17:28.301Z,19.44
2023-03-25T23:22:30.176Z,19.38
2023-03-25T23:27:34.160Z,19.43
2023-03-25T23:32:36.244Z,19.37
2023-03-25T23:37:38.107Z,19.29
2023-03-25T23:42:39.989Z,19.30
2023-03-25T23:47:41.984Z,19.26
2023-03-25T23:52:44.118Z,19.27
2023-03-25T23:57:46.059Z,19.30
